TimeCST,TemperatureF,Dew PointF,Humidity,Sea Level PressureIn,VisibilityMPH,Wind Direction,Wind SpeedMPH,Gust SpeedMPH,PrecipitationIn,Events,Conditions,WindDirDegrees,DateUTC
12:15 AM,37.4,33.8,87,29.68,10.0,SE,13.8,-,N/A,,Scattered Clouds,140,2013-11-16 06:15:00
12:35 AM,37.4,33.8,87,29.67,10.0,SE,13.8,-,N/A,,Mostly Cloudy,140,2013-11-16 06:35:00
12:55 AM,39.2,35.6,87,29.65,10.0,SSE,12.7,-,N/A,,Clear,150,2013-11-16 06:55:00
1:15 AM,42.8,37.4,81,29.63,10.0,SSE,20.7,-,N/A,,Clear,160,2013-11-16 07:15:00
1:35 AM,42.8,37.4,81,29.63,10.0,SSE,18.4,25.3,N/A,,Clear,160,2013-11-16 07:35:00
1:55 AM,41.0,37.4,87,29.62,10.0,SSE,18.4,25.3,N/A,,Clear,160,2013-11-16 07:55:00
2:15 AM,41.0,37.4,87,29.63,10.0,SSE,16.1,21.9,N/A,,Clear,160,2013-11-16 08:15:00
2:35 AM,42.8,39.2,87,29.62,10.0,SSE,18.4,25.3,N/A,,Clear,160,2013-11-16 08:35:00
2:55 AM,42.8,39.2,87,29.61,10.0,South,17.3,26.5,N/A,,Clear,170,2013-11-16 08:55:00
3:15 AM,41.0,39.2,93,29.60,10.0,SSE,13.8,21.9,N/A,,Clear,160,2013-11-16 09:15:00
3:35 AM,41.0,39.2,93,29.59,10.0,SSE,17.3,23.0,N/A,,Clear,160,2013-11-16 09:35:00
3:55 AM,41.0,39.2,93,29.58,10.0,SSE,15.0,-,N/A,,Clear,160,2013-11-16 09:55:00
4:15 AM,41.0,39.2,93,29.58,10.0,SSE,16.1,-,N/A,,Clear,160,2013-11-16 10:15:00
4:35 AM,41.0,39.2,93,29.57,10.0,SSE,16.1,-,N/A,,Clear,160,2013-11-16 10:35:00
4:55 AM,42.8,41.0,93,29.56,10.0,SSE,15.0,-,N/A,,Partly Cloudy,160,2013-11-16 10:55:00
5:15 AM,42.8,41.0,93,29.55,9.0,SSE,13.8,-,N/A,,Scattered Clouds,150,2013-11-16 11:15:00
5:35 AM,42.8,41.0,93,29.55,7.0,SSE,15.0,-,N/A,,Mostly Cloudy,150,2013-11-16 11:35:00
5:55 AM,42.8,42.8,100,29.54,7.0,SSE,15.0,-,N/A,,Overcast,150,2013-11-16 11:55:00
6:15 AM,44.6,42.8,93,29.53,7.0,SSE,17.3,-,N/A,,Overcast,160,2013-11-16 12:15:00
6:35 AM,46.4,44.6,93,29.52,7.0,SSE,16.1,-,N/A,,Overcast,160,2013-11-16 12:35:00
6:55 AM,46.4,44.6,93,29.51,7.0,SSE,16.1,23.0,N/A,,Overcast,160,2013-11-16 12:55:00
7:15 AM,46.4,44.6,93,29.50,5.0,SSE,17.3,23.0,N/A,,Overcast,150,2013-11-16 13:15:00
7:35 AM,46.4,44.6,93,29.49,4.0,SSE,19.6,-,N/A,,Overcast,150,2013-11-16 13:35:00
7:55 AM,48.2,46.4,93,29.49,5.0,SSE,17.3,23.0,N/A,,Overcast,150,2013-11-16 13:55:00
8:15 AM,48.2,46.4,93,29.49,5.0,SSE,19.6,-,N/A,,Overcast,150,2013-11-16 14:15:00
8:35 AM,48.2,46.4,93,29.48,5.0,SSE,17.3,25.3,N/A,,Overcast,150,2013-11-16 14:35:00
8:55 AM,48.2,46.4,93,29.47,4.0,SSE,18.4,25.3,N/A,,Overcast,150,2013-11-16 14:55:00
9:15 AM,50.0,48.2,94,29.45,4.0,SSE,19.6,27.6,N/A,,Overcast,150,2013-11-16 15:15:00
9:35 AM,48.2,46.4,93,29.45,3.0,SE,17.3,24.2,N/A,,Overcast,140,2013-11-16 15:35:00
9:55 AM,48.2,48.2,100,29.44,2.0,SE,18.4,-,N/A,,Overcast,140,2013-11-16 15:55:00
10:15 AM,48.2,48.2,100,29.43,1.8,SE,16.1,24.2,N/A,,Overcast,140,2013-11-16 16:15:00
10:35 AM,48.2,48.2,100,29.42,1.8,SE,19.6,-,N/A,,Overcast,140,2013-11-16 16:35:00
10:55 AM,48.2,48.2,100,29.41,2.0,SE,15.0,23.0,N/A,,Overcast,140,2013-11-16 16:55:00
11:15 AM,51.8,50.0,94,29.39,3.0,SE,17.3,24.2,N/A,,Overcast,140,2013-11-16 17:15:00
11:35 AM,51.8,50.0,94,29.37,4.0,SSE,18.4,26.5,N/A,,Overcast,150,2013-11-16 17:35:00
11:55 AM,53.6,50.0,88,29.36,5.0,SSE,18.4,25.3,N/A,,Overcast,150,2013-11-16 17:55:00
12:15 PM,53.6,51.8,94,29.33,6.0,SSE,17.3,-,N/A,,Overcast,150,2013-11-16 18:15:00
12:35 PM,55.4,51.8,88,29.34,7.0,SSE,16.1,23.0,N/A,,Overcast,160,2013-11-16 18:35:00
12:55 PM,57.2,53.6,88,29.31,5.0,SSE,20.7,27.6,N/A,,Scattered Clouds,160,2013-11-16 18:55:00
1:15 PM,57.2,53.6,88,29.28,7.0,SSE,23.0,31.1,N/A,,Partly Cloudy,160,2013-11-16 19:15:00
1:35 PM,59.0,55.4,88,29.27,9.0,South,24.2,-,N/A,,Partly Cloudy,170,2013-11-16 19:35:00
1:55 PM,60.8,55.4,82,29.27,9.0,South,23.0,28.8,N/A,,Mostly Cloudy,180,2013-11-16 19:55:00
2:15 PM,60.8,53.6,77,29.27,10.0,SSW,23.0,29.9,N/A,,Overcast,200,2013-11-16 20:15:00
2:35 PM,62.6,53.6,72,29.26,10.0,SSW,27.6,-,N/A,,Overcast,200,2013-11-16 20:35:00
2:55 PM,64.4,53.6,68,29.26,10.0,SSW,31.1,39.1,N/A,,Mostly Cloudy,200,2013-11-16 20:55:00
3:15 PM,62.6,53.6,72,29.26,10.0,SSW,26.5,40.3,N/A,,Overcast,210,2013-11-16 21:15:00
3:35 PM,62.6,53.6,72,29.27,10.0,SSW,21.9,31.1,N/A,,Overcast,210,2013-11-16 21:35:00
3:55 PM,64.4,53.6,68,29.27,10.0,SSW,21.9,31.1,N/A,,Mostly Cloudy,210,2013-11-16 21:55:00
4:15 PM,62.6,53.6,72,29.27,10.0,SW,20.7,27.6,N/A,,Mostly Cloudy,220,2013-11-16 22:15:00
4:35 PM,62.6,50.0,63,29.28,10.0,SW,20.7,32.2,N/A,,Partly Cloudy,220,2013-11-16 22:35:00
4:55 PM,59.0,48.2,67,29.30,10.0,SW,16.1,24.2,N/A,,Clear,230,2013-11-16 22:55:00
5:15 PM,57.2,44.6,63,29.32,10.0,WSW,16.1,-,N/A,,Clear,240,2013-11-16 23:15:00
5:35 PM,55.4,44.6,67,29.34,10.0,West,15.0,23.0,N/A,,Clear,260,2013-11-16 23:35:00
5:55 PM,53.6,41.0,62,29.35,10.0,WSW,15.0,20.7,N/A,,Clear,250,2013-11-16 23:55:00
6:15 PM,51.8,41.0,67,29.36,10.0,WSW,12.7,-,N/A,,Clear,250,2013-11-17 00:15:00
6:35 PM,50.0,41.0,71,29.37,10.0,West,13.8,-,N/A,,Clear,260,2013-11-17 00:35:00
6:55 PM,48.2,41.0,76,29.38,10.0,West,10.4,-,N/A,,Clear,260,2013-11-17 00:55:00
7:15 PM,46.4,39.2,76,29.38,10.0,WSW,8.1,-,N/A,,Clear,250,2013-11-17 01:15:00
7:35 PM,44.6,37.4,76,29.39,10.0,SW,9.2,-,N/A,,Clear,230,2013-11-17 01:35:00
7:55 PM,44.6,37.4,76,29.39,10.0,SSW,6.9,-,N/A,,Clear,210,2013-11-17 01:55:00
8:15 PM,42.8,35.6,76,29.39,10.0,SSW,8.1,-,N/A,,Clear,200,2013-11-17 02:15:00
8:35 PM,42.8,37.4,81,29.39,10.0,SSE,9.2,-,N/A,,Clear,160,2013-11-17 02:35:00
8:55 PM,42.8,35.6,76,29.39,10.0,South,11.5,-,N/A,,Clear,170,2013-11-17 02:55:00
9:15 PM,42.8,37.4,81,29.40,10.0,South,13.8,-,N/A,,Clear,180,2013-11-17 03:15:00
9:35 PM,41.0,35.6,81,29.40,10.0,South,8.1,-,N/A,,Clear,190,2013-11-17 03:35:00
9:55 PM,39.2,33.8,81,29.40,10.0,South,8.1,-,N/A,,Clear,180,2013-11-17 03:55:00
10:15 PM,41.0,33.8,76,29.40,10.0,South,8.1,-,N/A,,Clear,190,2013-11-17 04:15:00
10:35 PM,41.0,33.8,76,29.36,10.0,NNW,4.6,-,N/A,,Clear,340,2013-11-17 04:35:00
10:55 PM,37.4,32.0,81,29.39,10.0,South,9.2,-,N/A,,Clear,170,2013-11-17 04:55:00
11:15 PM,39.2,33.8,81,29.40,10.0,South,13.8,-,N/A,,Clear,170,2013-11-17 05:15:00
11:35 PM,42.8,33.8,70,29.41,10.0,South,13.8,-,N/A,,Clear,170,2013-11-17 05:35:00
11:55 PM,42.8,33.8,70,29.42,10.0,South,9.2,-,N/A,,Clear,190,2013-11-17 05:55:00